sensor_id;sensor_type;location;lat;lon;timestamp;pressure;altitude;pressure_sealevel;temperature
77355;BMP280;66422;51.202;19.936;2023-04-05T00:14:44;99955.75;;;-3.53
77355;BMP280;66422;51.202;19.936;2023-04-05T00:30:05;99938.65;;;-3.69
77355;BMP280;66422;51.202;19.936;2023-04-05T00:45:24;99928.09;;;-3.59
77355;BMP280;66422;51.202;19.936;2023-04-05T01:16:09;99900.56;;;-2.46
77355;BMP280;66422;51.202;19.936;2023-04-05T01:31:36;99894.91;;;-2.46
77355;BMP280;66422;51.202;19.936;2023-04-05T01:46:58;99891.97;;;-2.15
77355;BMP280;66422;51.202;19.936;2023-04-05T02:02:18;99886.80;;;-1.81
77355;BMP280;66422;51.202;19.936;2023-04-05T02:17:38;99886.65;;;-1.50
77355;BMP280;66422;51.202;19.936;2023-04-05T02:32:58;99888.11;;;-1.20
77355;BMP280;66422;51.202;19.936;2023-04-05T02:48:17;99888.03;;;-1.75
77355;BMP280;66422;51.202;19.936;2023-04-05T03:03:38;99879.08;;;-1.84
77355;BMP280;66422;51.202;19.936;2023-04-05T03:19:00;99879.45;;;-2.27
77355;BMP280;66422;51.202;19.936;2023-04-05T03:34:21;99866.02;;;-2.52
77355;BMP280;66422;51.202;19.936;2023-04-05T03:49:41;99875.85;;;-2.90
77355;BMP280;66422;51.202;19.936;2023-04-05T04:05:01;99880.27;;;-3.13
77355;BMP280;66422;51.202;19.936;2023-04-05T04:20:21;99878.92;;;-3.42
77355;BMP280;66422;51.202;19.936;2023-04-05T04:35:48;99880.68;;;-3.58
77355;BMP280;66422;51.202;19.936;2023-04-05T04:51:41;99890.25;;;-3.84
77355;BMP280;66422;51.202;19.936;2023-04-05T05:07:01;99889.94;;;-3.34
77355;BMP280;66422;51.202;19.936;2023-04-05T05:22:21;99894.21;;;-3.18
77355;BMP280;66422;51.202;19.936;2023-04-05T05:37:41;99915.80;;;-2.39
77355;BMP280;66422;51.202;19.936;2023-04-05T05:53:00;99919.63;;;-1.68
77355;BMP280;66422;51.202;19.936;2023-04-05T06:08:21;99923.90;;;-0.70
77355;BMP280;66422;51.202;19.936;2023-04-05T06:23:41;99922.69;;;0.08
77355;BMP280;66422;51.202;19.936;2023-04-05T06:39:01;99930.30;;;0.77
77355;BMP280;66422;51.202;19.936;2023-04-05T06:54:20;99938.42;;;1.85
77355;BMP280;66422;51.202;19.936;2023-04-05T07:09:42;99943.36;;;2.30
77355;BMP280;66422;51.202;19.936;2023-04-05T07:25:02;99931.66;;;2.54
77355;BMP280;66422;51.202;19.936;2023-04-05T07:40:21;99942.45;;;3.80
77355;BMP280;66422;51.202;19.936;2023-04-05T07:55:41;99947.79;;;4.03
77355;BMP280;66422;51.202;19.936;2023-04-05T08:11:02;99945.96;;;3.82
77355;BMP280;66422;51.202;19.936;2023-04-05T08:26:22;99944.06;;;4.76
77355;BMP280;66422;51.202;19.936;2023-04-05T08:41:53;99937.04;;;4.37
77355;BMP280;66422;51.202;19.936;2023-04-05T08:57:15;99929.21;;;4.18
77355;BMP280;66422;51.202;19.936;2023-04-05T09:12:35;99917.98;;;4.77
77355;BMP280;66422;51.202;19.936;2023-04-05T09:27:54;99910.96;;;5.57
77355;BMP280;66422;51.202;19.936;2023-04-05T09:43:40;99914.77;;;4.77
77355;BMP280;66422;51.202;19.936;2023-04-05T09:59:07;99904.43;;;4.30
77355;BMP280;66422;51.202;19.936;2023-04-05T10:14:28;99903.79;;;5.19
77355;BMP280;66422;51.202;19.936;2023-04-05T10:30:05;99898.84;;;5.63
77355;BMP280;66422;51.202;19.936;2023-04-05T10:45:27;99886.54;;;6.12
77355;BMP280;66422;51.202;19.936;2023-04-05T11:00:47;99869.94;;;6.03
77355;BMP280;66422;51.202;19.936;2023-04-05T11:16:08;99861.58;;;4.76
77355;BMP280;66422;51.202;19.936;2023-04-05T11:31:28;99858.96;;;5.79
77355;BMP280;66422;51.202;19.936;2023-04-05T11:46:48;99852.84;;;6.01
77355;BMP280;66422;51.202;19.936;2023-04-05T12:02:08;99856.92;;;5.67
77355;BMP280;66422;51.202;19.936;2023-04-05T12:32:58;99858.92;;;6.23
77355;BMP280;66422;51.202;19.936;2023-04-05T12:48:22;99854.37;;;7.00
77355;BMP280;66422;51.202;19.936;2023-04-05T13:03:44;99852.08;;;5.98
77355;BMP280;66422;51.202;19.936;2023-04-05T13:19:04;99845.95;;;7.85
77355;BMP280;66422;51.202;19.936;2023-04-05T13:34:24;99846.71;;;6.62
77355;BMP280;66422;51.202;19.936;2023-04-05T13:49:44;99838.39;;;5.77
77355;BMP280;66422;51.202;19.936;2023-04-05T14:05:06;99830.48;;;5.61
77355;BMP280;66422;51.202;19.936;2023-04-05T14:20:26;99835.34;;;5.54
77355;BMP280;66422;51.202;19.936;2023-04-05T14:35:45;99837.04;;;5.71
77355;BMP280;66422;51.202;19.936;2023-04-05T14:51:05;99839.94;;;6.25
77355;BMP280;66422;51.202;19.936;2023-04-05T15:06:25;99845.27;;;6.87
77355;BMP280;66422;51.202;19.936;2023-04-05T15:21:44;99846.73;;;6.34
77355;BMP280;66422;51.202;19.936;2023-04-05T15:37:04;99844.23;;;5.81
77355;BMP280;66422;51.202;19.936;2023-04-05T15:52:24;99839.92;;;5.98
77355;BMP280;66422;51.202;19.936;2023-04-05T16:07:44;99842.42;;;5.35
77355;BMP280;66422;51.202;19.936;2023-04-05T16:23:04;99843.44;;;4.79
77355;BMP280;66422;51.202;19.936;2023-04-05T16:38:24;99846.63;;;5.17
77355;BMP280;66422;51.202;19.936;2023-04-05T16:53:43;99858.98;;;4.52
77355;BMP280;66422;51.202;19.936;2023-04-05T17:09:03;99870.48;;;3.94
77355;BMP280;66422;51.202;19.936;2023-04-05T17:24:24;99871.53;;;3.38
77355;BMP280;66422;51.202;19.936;2023-04-05T17:39:44;99873.48;;;3.07
77355;BMP280;66422;51.202;19.936;2023-04-05T17:55:04;99890.13;;;2.51
77355;BMP280;66422;51.202;19.936;2023-04-05T18:10:24;99911.86;;;2.26
77355;BMP280;66422;51.202;19.936;2023-04-05T18:25:44;99922.50;;;2.04
77355;BMP280;66422;51.202;19.936;2023-04-05T18:41:03;99937.42;;;1.91
77355;BMP280;66422;51.202;19.936;2023-04-05T18:56:23;99952.00;;;1.54
77355;BMP280;66422;51.202;19.936;2023-04-05T19:11:42;99952.07;;;0.64
77355;BMP280;66422;51.202;19.936;2023-04-05T19:27:02;99952.93;;;0.59
77355;BMP280;66422;51.202;19.936;2023-04-05T19:42:22;99962.53;;;0.31
77355;BMP280;66422;51.202;19.936;2023-04-05T19:57:42;99959.46;;;0.19
77355;BMP280;66422;51.202;19.936;2023-04-05T20:13:04;99953.60;;;-0.15
77355;BMP280;66422;51.202;19.936;2023-04-05T20:43:50;99944.22;;;-0.67
77355;BMP280;66422;51.202;19.936;2023-04-05T20:59:10;99940.92;;;-0.94
77355;BMP280;66422;51.202;19.936;2023-04-05T21:14:29;99941.56;;;-1.18
77355;BMP280;66422;51.202;19.936;2023-04-05T21:29:49;99934.30;;;-1.43
77355;BMP280;66422;51.202;19.936;2023-04-05T21:45:09;99940.70;;;-1.49
77355;BMP280;66422;51.202;19.936;2023-04-05T22:00:29;99935.06;;;-1.82
77355;BMP280;66422;51.202;19.936;2023-04-05T22:15:48;99933.42;;;-1.96
77355;BMP280;66422;51.202;19.936;2023-04-05T22:31:08;99934.67;;;-1.95
77355;BMP280;66422;51.202;19.936;2023-04-05T22:46:28;99933.23;;;-2.39
77355;BMP280;66422;51.202;19.936;2023-04-05T23:01:47;99936.76;;;-2.31
77355;BMP280;66422;51.202;19.936;2023-04-05T23:17:07;99930.53;;;-2.46
77355;BMP280;66422;51.202;19.936;2023-04-05T23:32:27;99928.95;;;-2.79
77355;BMP280;66422;51.202;19.936;2023-04-05T23:47:47;99912.66;;;-2.92
